MDSD/SDQ METAR and TAF weather

Enter ICAO airport designator
Station Type Date Time Source
MDSD METAR 2019/12/06 02:00 UTC NOAA

MDSD 060200Z 03003KT 9999 FEW018 25/23 Q1016


Station Type Date Time Source
MDSD Decoded METAR 2019/12/06 02:00 UTC NOAA

Las Americas, Dominican Republic (MDSD) 18-26N 069-40W
Dec 05, 2019 - 09:00 PM EST / 2019.12.06 0200 UTC
Wind: from the NNE (030 degrees) at 3 MPH (3 KT):0
Visibility: greater than 7 mile(s):0
Sky conditions: mostly clear
Temperature: 77 F (25 C)
Dew Point: 73 F (23 C)
Relative Humidity: 88%
Pressure (altimeter): 30.00 in. Hg (1016 hPa)
ob: MDSD 060200Z 03003KT 9999 FEW018 25/23 Q1016
cycle: 2

Station Type Date Time Source
MDSD TAF 2019/12/05 18:21 UTC NOAA

TAF MDSD 051600Z 0518/0618 18010KT 9999 SCT020 PROB40
TEMPO 0521/0604 6000 TSRA FEW016CB BKN018 SCT070

Example: see airport list